Monday, August 31, 2015, 12:41 AM EDT
Back to Local

KCXY, Harrisburg Capital City

Location: New Cumberland, PA, United States Lat: 40.217
Local Time: 12:41 AM EDT ( 4:41 GMT) Lon: -76.85
Time Zone: US/Eastern Elev: 347 ft

Show me the last for .
Show Decoded

2015-08-30 23:56 METAR KCXY 310356Z AUTO 00000KT 10SM BKN100 24/18 A3007 RMK AO2 SLP180 T02390183
                 =
2015-08-30 22:56 METAR KCXY 310256Z AUTO 27005KT 10SM FEW120 24/18 A3007 RMK AO2 SLP180 T02390183
                 50013 =
2015-08-30 21:56 METAR KCXY 310156Z AUTO 24006KT 10SM CLR 24/18 A3007 RMK AO2 SLP182 T02440183 =
2015-08-30 20:56 METAR KCXY 310056Z AUTO 27006KT 10SM CLR 25/18 A3006 RMK AO2 LTG DSNT SW SLP178
                 T02500178 =
2015-08-30 19:56 METAR KCXY 302356Z 26009KT 10SM CLR 27/18 A3003 RMK AO2 SLP168 60000 T02670178
                 10306 20267 53001 =
2015-08-30 17:56 METAR KCXY 302156Z 19003KT 10SM CLR 30/19 A3002 RMK AO2 LTG DSNT SW SLP164
                 T03000189 =
2015-08-30 16:56 METAR KCXY 302056Z 24004KT 10SM CLR 31/19 A3003 RMK AO2 SLP167 60000 T03060189
                 58016 =
2015-08-30 15:56 METAR KCXY 301956Z 00000KT 10SM SCT100 SCT120 29/20 A3005 RMK AO2 RAB14E25
                 SLP172 P0000 T02940200 =
2015-08-30 14:56 METAR KCXY 301856Z 21005KT 10SM BKN100 BKN120 29/20 A3006 RMK AO2 SLP178
                 T02890200 =
2015-08-30 13:56 METAR KCXY 301756Z 20005KT 10SM CLR 30/18 A3008 RMK AO2 SLP183 T03000183 10300
                 20206 56016 =
2015-08-30 12:56 METAR KCXY 301656Z 22005KT 10SM CLR 29/18 A3009 RMK AO2 SLP187 T02890183 =
2015-08-30 11:56 METAR KCXY 301556Z AUTO 27004KT 10SM CLR 28/18 A3011 RMK AO2 SLP194 T02780183 =
2015-08-30 10:56 METAR KCXY 301456Z AUTO 28005KT 10SM CLR 27/18 A3012 RMK AO2 SLP198 T02670183
                 50001 =
2015-08-30 09:56 METAR KCXY 301356Z AUTO 28003KT 10SM CLR 24/18 A3012 RMK AO2 SLP199 T02440183 =
2015-08-30 08:56 METAR KCXY 301256Z AUTO 00000KT 10SM CLR 23/18 A3012 RMK AO2 SLP198 T02280183 =
2015-08-30 06:56 METAR KCXY 301056Z AUTO 00000KT 6SM BR CLR 18/17 A3011 RMK AO2 SLP194 T01780167
                 =
2015-08-30 05:56 METAR KCXY 300956Z AUTO 25003KT 8SM CLR 18/17 A3009 RMK AO2 SLP188 T01830167 =
2015-08-30 04:56 METAR KCXY 300856Z AUTO 00000KT 8SM CLR 18/17 A3009 RMK AO2 SLP186 T01830167
                 56003 =
2015-08-30 03:56 METAR KCXY 300756Z AUTO 00000KT 8SM CLR 19/17 A3009 RMK AO2 SLP186 T01890172 =
2015-08-30 02:56 METAR KCXY 300656Z AUTO 00000KT 9SM CLR 19/17 A3009 RMK AO2 SLP187 T01890172 =
2015-08-30 00:56 METAR KCXY 300456Z AUTO 24003KT 10SM CLR 21/18 A3011 RMK AO2 SLP193 T02060178
                 402940156 =

Support USWX by starting your Amazon purchase here.